Time;durP1;ratioP1;P1;durP2;ratioP2;P2;SDS_P1;SDS_P2;PMS_P1;PMS_P2;Temp;Humidity;BMP_temperature;BMP_pressure;BME280_temperature;BME280_humidity;BME280_pressure;Samples;Min_cycle;Max_cycle;Signal;HPM_P1;HPM_P2
2023/08/12 00:00:58;;;;;;;17.77;8.38;;;;;;;21.06;79.58;101815.75;7402491;19;19942;-75
2023/08/12 00:03:27;;;;;;;16.48;8.75;;;;;;;21.04;79.21;101822.53;7403629;19;20420;-76
2023/08/12 00:05:57;;;;;;;12.40;8.13;;;;;;;20.97;79.57;101829.97;7402283;19;19914;-76
2023/08/12 00:08:25;;;;;;;10.50;6.85;;;;;;;20.92;79.60;101827.06;7402951;19;19935;-76
2023/08/12 00:10:57;;;;;;;13.02;6.80;;;;;;;20.88;79.72;101825.81;7402051;19;19923;-76
2023/08/12 00:13:25;;;;;;;12.93;7.45;;;;;;;20.83;79.53;101835.53;7402369;19;19931;-77
2023/08/12 00:15:54;;;;;;;9.20;6.07;;;;;;;20.78;80.09;101829.88;7402217;19;19918;-76
2023/08/12 00:18:24;;;;;;;8.43;5.65;;;;;;;20.75;79.94;101832.22;7400664;19;20756;-76
2023/08/12 00:20:55;;;;;;;13.23;5.25;;;;;;;20.71;80.43;101831.00;7401942;19;19931;-77
2023/08/12 00:23:23;;;;;;;9.85;5.63;;;;;;;20.68;80.30;101840.47;7401684;19;19919;-76
2023/08/12 00:25:52;;;;;;;7.75;4.68;;;;;;;20.68;80.28;101837.72;7401685;19;19922;-76
2023/08/12 00:28:23;;;;;;;10.10;4.63;;;;;;;20.64;80.34;101835.66;7402190;19;19918;-76
2023/08/12 00:30:51;;;;;;;7.82;4.68;;;;;;;20.61;80.23;101834.22;7401843;19;19914;-76
2023/08/12 00:33:20;;;;;;;10.10;4.57;;;;;;;20.59;80.57;101836.31;7405910;19;19915;-77
2023/08/12 00:35:49;;;;;;;12.30;4.80;;;;;;;20.57;80.67;101832.13;7400852;19;19926;-76
2023/08/12 00:38:18;;;;;;;9.45;4.20;;;;;;;20.58;80.40;101833.81;7399796;19;19923;-76
2023/08/12 00:40:46;;;;;;;6.10;3.70;;;;;;;20.59;80.61;101830.00;7400539;19;19930;-77
2023/08/12 00:43:15;;;;;;;7.10;4.40;;;;;;;20.59;80.46;101830.84;7401695;19;19960;-74
2023/08/12 00:45:47;;;;;;;6.28;3.47;;;;;;;20.60;80.83;101824.31;7401568;19;19935;-74
2023/08/12 00:48:17;;;;;;;6.18;3.80;;;;;;;20.57;80.42;101832.13;7401672;19;19918;-77
2023/08/12 00:50:45;;;;;;;6.18;3.30;;;;;;;20.51;80.55;101827.50;7401702;19;19926;-76
2023/08/12 00:53:17;;;;;;;5.78;3.75;;;;;;;20.47;80.65;101829.00;7401259;19;19927;-75
2023/08/12 00:55:45;;;;;;;5.70;3.35;;;;;;;20.43;80.24;101833.25;7400966;19;19923;-76
2023/08/12 00:58:14;;;;;;;5.97;3.17;;;;;;;20.39;80.30;101832.84;7400232;19;19914;-76
2023/08/12 01:00:46;;;;;;;6.85;3.70;;;;;;;20.35;80.90;101824.25;7401215;19;19948;-76
2023/08/12 01:03:14;;;;;;;6.65;3.63;;;;;;;20.31;80.90;101827.63;7400902;19;20339;-76
2023/08/12 01:05:44;;;;;;;7.82;4.15;;;;;;;20.27;80.48;101823.63;7400256;19;19945;-75
2023/08/12 01:08:12;;;;;;;6.50;3.70;;;;;;;20.22;80.42;101831.63;7400810;19;19915;-76
2023/08/12 01:10:48;;;;;;;9.32;3.95;;;;;;;20.16;81.19;101825.13;7400231;19;19922;-77
2023/08/12 01:13:24;;;;;;;6.00;3.17;;;;;;;20.15;81.18;101817.97;7400574;19;19978;-76
2023/08/12 01:16:00;;;;;;;5.38;2.83;;;;;;;20.13;81.32;101820.09;7400252;19;19935;-76
2023/08/12 01:18:30;;;;;;;6.38;3.50;;;;;;;20.13;80.78;101816.50;7399055;19;20344;-76
2023/08/12 01:20:59;;;;;;;5.38;2.90;;;;;;;20.13;80.77;101822.00;7400624;19;19938;-76
2023/08/12 01:23:30;;;;;;;4.38;3.08;;;;;;;20.12;81.16;101820.31;7399999;19;19930;-76
2023/08/12 01:25:59;;;;;;;4.13;3.05;;;;;;;20.08;80.97;101813.59;7400449;19;20458;-76
2023/08/12 01:28:27;;;;;;;5.07;3.15;;;;;;;20.04;81.50;101823.28;7399926;19;19919;-74
2023/08/12 01:31:00;;;;;;;6.57;3.05;;;;;;;20.05;81.24;101819.50;7400670;19;19922;-74
2023/08/12 01:33:36;;;;;;;9.80;3.50;;;;;;;20.03;81.62;101813.38;7404891;19;19914;-74
2023/08/12 01:36:13;;;;;;;6.47;3.60;;;;;;;20.01;81.99;101810.06;7398534;19;19936;-75
2023/08/12 01:38:45;;;;;;;8.13;3.28;;;;;;;20.04;81.65;101804.13;7398191;19;20245;-75
2023/08/12 01:41:16;;;;;;;4.90;3.05;;;;;;;20.05;81.36;101808.56;7400290;19;19906;-75
2023/08/12 01:43:45;;;;;;;5.97;2.75;;;;;;;20.04;81.34;101796.78;7400131;19;19974;-75
2023/08/12 01:46:13;;;;;;;5.70;2.88;;;;;;;20.00;81.43;101794.69;7399892;19;19949;-76
2023/08/12 01:48:42;;;;;;;6.07;3.33;;;;;;;19.95;81.99;101784.38;7399379;19;19918;-75
2023/08/12 01:51:11;;;;;;;5.90;3.60;;;;;;;19.95;81.63;101781.66;7401574;19;20325;-75
2023/08/12 01:53:40;;;;;;;7.70;3.70;;;;;;;19.92;82.14;101782.09;7405901;19;19950;-75
2023/08/12 01:56:11;;;;;;;5.55;3.20;;;;;;;19.92;82.08;101774.75;7406018;19;19922;-75
2023/08/12 01:58:39;;;;;;;5.40;2.95;;;;;;;19.91;82.06;101778.53;7403995;19;19918;-75
2023/08/12 02:01:08;;;;;;;6.15;3.25;;;;;;;19.91;81.96;101774.94;7405934;19;19954;-76
2023/08/12 02:03:37;;;;;;;4.38;2.97;;;;;;;19.88;81.90;101769.91;7405759;19;19938;-76
2023/08/12 02:06:05;;;;;;;8.18;3.63;;;;;;;19.86;82.06;101767.38;7405903;19;19937;-75
2023/08/12 02:08:34;;;;;;;5.78;2.88;;;;;;;19.86;81.87;101766.53;7405891;19;19935;-75
2023/08/12 02:11:02;;;;;;;4.65;3.30;;;;;;;19.84;81.77;101761.31;7405999;19;19915;-75
2023/08/12 02:13:34;;;;;;;6.10;3.22;;;;;;;19.84;81.84;101764.03;7406500;19;19926;-75
2023/08/12 02:16:02;;;;;;;6.20;3.20;;;;;;;19.84;82.13;101755.84;7405652;19;20470;-76
2023/08/12 02:18:31;;;;;;;10.95;3.83;;;;;;;19.83;81.76;101756.88;7404206;19;19931;-75
2023/08/12 02:20:59;;;;;;;5.35;3.40;;;;;;;19.81;81.86;101753.50;7405678;19;19939;-75
2023/08/12 02:23:28;;;;;;;6.53;3.20;;;;;;;19.82;81.71;101757.09;7405798;19;19915;-75
2023/08/12 02:25:56;;;;;;;5.82;3.03;;;;;;;19.80;82.25;101743.63;7405908;19;20300;-75
2023/08/12 02:28:25;;;;;;;7.15;3.47;;;;;;;19.80;82.11;101742.81;7406594;19;20320;-75
2023/08/12 02:30:56;;;;;;;7.07;3.67;;;;;;;19.78;82.22;101745.75;7405993;19;20322;-75
2023/08/12 02:33:25;;;;;;;5.75;3.60;;;;;;;19.76;82.23;101752.50;7409818;19;20266;-75
2023/08/12 02:35:56;;;;;;;7.60;4.25;;;;;;;19.72;82.28;101746.59;7403454;19;19918;-75
2023/08/12 02:38:24;;;;;;;7.35;3.90;;;;;;;19.66;82.39;101750.22;7403214;19;19911;-75
2023/08/12 02:40:53;;;;;;;7.60;4.03;;;;;;;19.59;82.94;101754.03;7401837;19;19951;-75
2023/08/12 02:43:22;;;;;;;6.35;4.38;;;;;;;19.54;82.97;101748.38;7404119;19;19919;-75
2023/08/12 02:45:50;;;;;;;13.73;4.13;;;;;;;19.45;83.39;101751.34;7404210;19;19942;-75
2023/08/12 02:48:21;;;;;;;7.35;4.22;;;;;;;19.42;83.51;101746.25;7404292;19;19942;-75
2023/08/12 02:50:50;;;;;;;6.35;3.90;;;;;;;19.38;83.58;101741.41;7403968;19;19914;-76
2023/08/12 02:53:19;;;;;;;5.70;4.15;;;;;;;19.37;83.81;101737.03;7403825;19;19918;-75
2023/08/12 02:55:48;;;;;;;7.72;3.83;;;;;;;19.36;83.90;101733.44;7404592;19;19929;-76
2023/08/12 02:58:16;;;;;;;8.23;4.10;;;;;;;19.37;83.87;101734.28;7402615;19;19918;-75
2023/08/12 03:00:46;;;;;;;10.35;4.63;;;;;;;19.37;84.30;101734.28;7403702;19;19976;-76
2023/08/12 03:03:14;;;;;;;8.05;4.43;;;;;;;19.40;84.14;101731.13;7403187;19;19935;-76
2023/08/12 03:05:48;;;;;;;10.00;5.05;;;;;;;19.35;84.29;101726.31;7403839;19;19949;-75
2023/08/12 03:08:17;;;;;;;6.75;4.50;;;;;;;19.36;84.46;101733.44;7403761;19;19915;-75
2023/08/12 03:10:47;;;;;;;9.75;4.57;;;;;;;19.40;84.26;101731.13;7403161;19;19923;-76
2023/08/12 03:13:16;;;;;;;8.40;4.75;;;;;;;19.39;84.63;101727.56;7403409;19;20344;-75
2023/08/12 03:15:44;;;;;;;8.82;4.65;;;;;;;19.41;84.83;101724.63;7403232;19;19926;-75
2023/08/12 03:18:13;;;;;;;9.68;4.90;;;;;;;19.42;84.56;101724.38;7402424;19;19914;-75
2023/08/12 03:20:41;;;;;;;7.10;4.38;;;;;;;19.42;84.29;101718.06;7403265;19;19910;-75
2023/08/12 03:23:13;;;;;;;8.93;5.15;;;;;;;19.44;84.80;101718.75;7403015;19;19919;-74
2023/08/12 03:25:41;;;;;;;7.50;5.07;;;;;;;19.43;84.64;101717.91;7403165;19;20384;-75
2023/08/12 03:28:10;;;;;;;10.73;5.22;;;;;;;19.44;84.73;101714.13;7402883;19;19938;-75
2023/08/12 03:30:39;;;;;;;7.38;4.88;;;;;;;19.45;85.02;101706.75;7404557;19;20706;-75
2023/08/12 03:33:07;;;;;;;10.98;4.78;;;;;;;19.49;84.72;101699.81;7402658;19;19974;-75
2023/08/12 03:35:36;;;;;;;7.57;4.63;;;;;;;19.53;84.57;101695.59;7401985;19;19926;-75
2023/08/12 03:38:05;;;;;;;6.43;4.32;;;;;;;19.56;84.72;101694.31;7402908;19;19978;-75
2023/08/12 03:40:40;;;;;;;8.13;4.72;;;;;;;19.56;84.92;101686.94;7401679;19;19918;-75
2023/08/12 03:43:09;;;;;;;10.85;5.45;;;;;;;19.63;84.84;101690.50;7403308;19;19914;-75
2023/08/12 03:45:42;;;;;;;8.68;4.90;;;;;;;19.65;84.92;101693.00;7403449;19;19910;-75
2023/08/12 03:48:11;;;;;;;9.75;5.28;;;;;;;19.64;84.84;101689.44;7402826;19;20275;-76
2023/08/12 03:50:41;;;;;;;9.43;5.65;;;;;;;19.63;84.98;101690.50;7402501;19;19918;-75
2023/08/12 03:53:10;;;;;;;8.75;5.45;;;;;;;19.61;84.80;101687.16;7402806;19;19914;-75
2023/08/12 03:55:41;;;;;;;7.75;4.35;;;;;;;19.59;85.06;101686.50;7402189;19;19914;-75
2023/08/12 03:58:10;;;;;;;9.57;5.00;;;;;;;19.56;84.87;101678.75;7402622;19;19930;-75
2023/08/12 04:00:43;;;;;;;7.25;4.95;;;;;;;19.54;84.46;101678.16;7402178;19;19942;-75
2023/08/12 04:03:12;;;;;;;8.90;5.38;;;;;;;19.55;84.55;101688.00;7402926;19;19938;-75
2023/08/12 04:05:40;;;;;;;8.75;5.20;;;;;;;19.54;84.80;101686.34;7402346;19;19915;-75
2023/08/12 04:08:09;;;;;;;8.38;4.70;;;;;;;19.49;84.56;101688.88;7403124;19;19925;-75
2023/08/12 04:10:37;;;;;;;10.32;4.93;;;;;;;19.43;85.16;101685.09;7402604;19;19926;-75
2023/08/12 04:13:09;;;;;;;10.80;5.38;;;;;;;19.41;84.75;101680.88;7401579;19;19922;-75
2023/08/12 04:15:37;;;;;;;9.10;5.15;;;;;;;19.40;85.11;101679.22;7402451;19;19930;-76
2023/08/12 04:18:07;;;;;;;10.55;5.32;;;;;;;19.40;84.82;101682.78;7401970;19;19914;-75
2023/08/12 04:20:35;;;;;;;11.15;5.25;;;;;;;19.39;85.30;101677.53;7402419;19;19927;-75
2023/08/12 04:23:04;;;;;;;10.90;5.32;;;;;;;19.40;85.32;101680.06;7402998;19;19914;-74
2023/08/12 04:25:33;;;;;;;9.88;6.22;;;;;;;19.40;85.22;101673.75;7402735;19;19922;-75
2023/08/12 04:28:01;;;;;;;11.50;5.68;;;;;;;19.43;85.03;101668.72;7402173;19;19907;-75
2023/08/12 04:30:32;;;;;;;10.50;6.22;;;;;;;19.47;85.49;101664.50;7403389;19;19942;-75
2023/08/12 04:33:01;;;;;;;8.98;5.00;;;;;;;19.50;85.37;101663.22;7402128;19;19919;-77
2023/08/12 04:35:30;;;;;;;13.82;5.53;;;;;;;19.54;85.27;101661.75;7401284;19;19918;-75
2023/08/12 04:37:58;;;;;;;9.70;5.15;;;;;;;19.57;84.93;101661.31;7402432;19;19919;-75
2023/08/12 04:40:27;;;;;;;10.93;5.25;;;;;;;19.61;84.96;101656.22;7401368;19;19942;-75
2023/08/12 04:42:56;;;;;;;10.77;5.97;;;;;;;19.62;84.97;101656.03;7401838;19;20277;-75
2023/08/12 04:45:24;;;;;;;9.75;5.63;;;;;;;19.63;85.22;101645.94;7401619;19;19953;-75
2023/08/12 04:47:56;;;;;;;9.57;5.72;;;;;;;19.65;84.82;101644.66;7402125;19;19911;-75
2023/08/12 04:50:24;;;;;;;11.25;6.30;;;;;;;19.64;85.19;101656.63;7402244;19;19914;-75
2023/08/12 04:52:53;;;;;;;11.18;5.50;;;;;;;19.64;85.03;101651.16;7401827;19;19922;-76
2023/08/12 04:55:21;;;;;;;10.70;6.18;;;;;;;19.66;85.24;101654.53;7401425;19;19918;-75
2023/08/12 04:57:50;;;;;;;10.73;6.55;;;;;;;19.64;85.37;101647.59;7401434;19;19931;-75
2023/08/12 05:00:19;;;;;;;10.98;6.25;;;;;;;19.62;85.23;101649.72;7400200;19;19918;-76
2023/08/12 05:02:48;;;;;;;12.93;6.15;;;;;;;19.64;85.24;101645.69;7401409;19;19926;-74
2023/08/12 05:05:19;;;;;;;10.68;5.63;;;;;;;19.65;85.76;101650.13;7401722;19;19922;-76
2023/08/12 05:07:48;;;;;;;11.73;6.20;;;;;;;19.68;85.58;101644.22;7401250;19;19918;-75
2023/08/12 05:10:18;;;;;;;9.77;6.22;;;;;;;19.70;85.27;101647.56;7401541;19;19942;-75
2023/08/12 05:12:48;;;;;;;10.20;6.20;;;;;;;19.70;85.46;101636.63;7401004;19;19915;-75
2023/08/12 05:15:17;;;;;;;11.95;5.95;;;;;;;19.68;85.43;101632.44;7401589;19;19942;-75
2023/08/12 05:17:46;;;;;;;13.95;6.60;;;;;;;19.66;85.31;101623.63;7401299;19;19918;-75
2023/08/12 05:20:14;;;;;;;9.32;6.07;;;;;;;19.66;85.56;101627.19;7399685;19;19919;-75
2023/08/12 05:22:45;;;;;;;11.32;6.45;;;;;;;19.68;85.75;101633.28;7400661;19;19946;-76
2023/08/12 05:25:14;;;;;;;10.75;6.15;;;;;;;19.68;85.53;101629.69;7400295;19;19922;-75
2023/08/12 05:27:43;;;;;;;13.73;6.90;;;;;;;19.67;85.34;101623.41;7400833;19;19923;-75
2023/08/12 05:30:12;;;;;;;11.25;6.60;;;;;;;19.70;85.69;101622.13;7400945;19;19934;-75
2023/08/12 05:32:41;;;;;;;12.20;6.07;;;;;;;19.71;85.75;101618.34;7401131;19;20425;-76
2023/08/12 05:35:10;;;;;;;13.57;7.20;;;;;;;19.72;85.54;101620.00;7400711;19;19939;-75
2023/08/12 05:37:39;;;;;;;11.13;6.80;;;;;;;19.72;85.42;101623.56;7400463;19;19946;-76
2023/08/12 05:40:11;;;;;;;10.55;6.40;;;;;;;19.71;85.84;101626.53;7398899;19;19934;-75
2023/08/12 05:42:40;;;;;;;13.10;6.70;;;;;;;19.70;85.41;101624.84;7400487;19;19918;-76
2023/08/12 05:45:10;;;;;;;9.95;6.78;;;;;;;19.72;85.89;101618.09;7400566;19;19922;-75
2023/08/12 05:47:39;;;;;;;9.02;6.18;;;;;;;19.75;85.57;101625.88;7399275;19;19922;-75
2023/08/12 05:50:08;;;;;;;13.38;6.88;;;;;;;19.80;85.63;101626.03;7399427;19;19938;-75
2023/08/12 05:52:57;;;;;;;11.10;6.45;;;;;;;19.79;85.62;101624.38;7397951;19;19922;-75
2023/08/12 05:55:28;;;;;;;15.77;6.60;;;;;;;19.83;85.35;101609.22;7399601;19;19915;-75
2023/08/12 05:57:57;;;;;;;12.32;6.00;;;;;;;19.90;86.16;101610.00;7399346;19;19923;-75
2023/08/12 06:00:26;;;;;;;8.77;5.93;;;;;;;19.97;85.16;101606.41;7397183;19;20329;-75
2023/08/12 06:02:55;;;;;;;13.60;6.43;;;;;;;20.01;85.73;101607.63;7398804;19;19918;-75
2023/08/12 06:05:23;;;;;;;12.25;6.60;;;;;;;20.06;85.76;101602.34;7398560;19;19914;-75
2023/08/12 06:07:52;;;;;;;9.48;6.63;;;;;;;20.09;85.13;101607.38;7398356;19;19927;-75
2023/08/12 06:10:21;;;;;;;15.13;7.35;;;;;;;20.08;85.71;101612.00;7399305;19;20276;-75
2023/08/12 06:12:52;;;;;;;13.23;7.20;;;;;;;20.09;85.61;101610.09;7398748;19;19915;-75
2023/08/12 06:15:20;;;;;;;13.77;6.90;;;;;;;20.09;85.02;101615.56;7398998;19;19997;-75
2023/08/12 06:17:49;;;;;;;13.13;7.40;;;;;;;20.09;85.67;101607.38;7398514;19;19935;-75
2023/08/12 06:20:18;;;;;;;10.20;7.25;;;;;;;20.15;85.17;101601.00;7397026;19;19914;-76
2023/08/12 06:22:46;;;;;;;11.82;6.82;;;;;;;20.20;85.68;101593.78;7398398;19;20355;-75
2023/08/12 06:25:15;;;;;;;12.30;7.75;;;;;;;20.28;85.21;101598.97;7397989;19;19922;-76
2023/08/12 06:27:44;;;;;;;17.40;7.88;;;;;;;20.36;85.32;101596.00;7398465;19;19922;-76
2023/08/12 06:30:16;;;;;;;14.65;6.97;;;;;;;20.45;85.42;101582.88;7399858;19;19915;-76
2023/08/12 06:32:44;;;;;;;13.15;8.05;;;;;;;20.56;85.10;101593.09;7397788;19;19923;-76
2023/08/12 06:35:13;;;;;;;12.60;7.95;;;;;;;20.64;85.33;101584.59;7397186;19;19956;-76
2023/08/12 06:37:42;;;;;;;13.38;7.53;;;;;;;20.72;84.94;101570.59;7401733;19;19942;-76
2023/08/12 06:40:11;;;;;;;16.95;8.27;;;;;;;20.79;84.56;101563.16;7402801;19;19986;-75
2023/08/12 06:42:39;;;;;;;14.13;8.02;;;;;;;20.82;85.11;101570.09;7404491;19;20872;-75
2023/08/12 06:45:10;;;;;;;15.40;8.88;;;;;;;20.83;84.62;101569.88;7404293;19;20340;-76
2023/08/12 06:47:41;;;;;;;18.05;9.52;;;;;;;20.85;84.82;101569.63;7404344;19;19935;-75
2023/08/12 06:50:10;;;;;;;16.67;9.35;;;;;;;20.84;85.00;101565.19;7404191;19;19915;-75
2023/08/12 06:52:39;;;;;;;15.13;8.98;;;;;;;20.81;84.61;101566.50;7403770;19;19926;-76
2023/08/12 06:55:08;;;;;;;15.20;9.00;;;;;;;20.82;85.34;101568.19;7404293;19;19931;-75
2023/08/12 06:57:37;;;;;;;17.45;10.00;;;;;;;20.81;84.97;101569.25;7403595;19;19970;-76
2023/08/12 07:00:06;;;;;;;18.98;10.07;;;;;;;20.79;85.12;101571.38;7402138;19;19914;-77
2023/08/12 07:02:36;;;;;;;15.43;9.60;;;;;;;20.77;85.51;101572.66;7403800;19;19942;-75
2023/08/12 07:05:08;;;;;;;18.70;9.45;;;;;;;20.78;85.56;101580.66;7403991;19;19922;-76
2023/08/12 07:07:36;;;;;;;14.00;10.00;;;;;;;20.80;85.30;101580.41;7403816;19;19923;-76
2023/08/12 07:10:06;;;;;;;16.63;10.07;;;;;;;20.80;85.18;101577.66;7404018;19;19931;-77
2023/08/12 07:12:35;;;;;;;17.67;10.68;;;;;;;20.77;85.93;101572.66;7404003;19;19950;-75
2023/08/12 07:15:03;;;;;;;17.63;10.27;;;;;;;20.77;86.02;101576.25;7403869;19;19942;-75
2023/08/12 07:17:32;;;;;;;18.48;11.00;;;;;;;20.80;85.75;101564.81;7403848;19;19932;-76
2023/08/12 07:20:00;;;;;;;18.02;10.43;;;;;;;20.80;85.75;101562.09;7402725;19;19958;-75
2023/08/12 07:22:31;;;;;;;16.42;11.10;;;;;;;20.84;85.67;101563.28;7403405;19;19915;-75
2023/08/12 07:25:01;;;;;;;17.25;11.23;;;;;;;20.85;85.65;101569.63;7403976;19;19911;-75
2023/08/12 07:27:30;;;;;;;21.77;12.45;;;;;;;20.87;85.69;101572.97;7403942;19;19914;-76
2023/08/12 07:29:58;;;;;;;20.23;11.63;;;;;;;20.87;85.24;101578.47;7405359;19;19931;-76
2023/08/12 07:32:27;;;;;;;21.75;11.68;;;;;;;20.84;85.58;101585.22;7403323;19;19946;-75
2023/08/12 07:34:55;;;;;;;18.65;12.30;;;;;;;20.84;85.69;101589.84;7403014;19;19915;-76
2023/08/12 07:37:24;;;;;;;20.65;12.18;;;;;;;20.76;85.86;101577.28;7404052;19;19922;-75
2023/08/12 07:39:55;;;;;;;21.15;12.23;;;;;;;20.74;85.87;101584.91;7402158;19;19922;-75
2023/08/12 07:42:24;;;;;;;21.85;11.55;;;;;;;20.74;86.14;101582.19;7403821;19;19919;-75
2023/08/12 07:44:52;;;;;;;20.08;11.85;;;;;;;20.74;86.29;101568.47;7403613;19;20660;-75
2023/08/12 07:47:21;;;;;;;17.98;11.85;;;;;;;20.75;86.02;101561.91;7402613;19;19925;-75
2023/08/12 07:49:49;;;;;;;18.40;12.43;;;;;;;20.75;86.41;101553.72;7402034;19;20344;-75
2023/08/12 07:52:18;;;;;;;18.88;12.18;;;;;;;20.77;86.44;101572.66;7403258;19;20281;-75
2023/08/12 07:54:47;;;;;;;19.90;12.63;;;;;;;20.78;86.85;101569.72;7402965;19;19990;-75
2023/08/12 07:57:20;;;;;;;22.60;12.95;;;;;;;20.78;87.30;101568.88;7402554;19;19982;-74
2023/08/12 07:59:48;;;;;;;20.90;13.48;;;;;;;20.78;86.55;101568.88;7401899;19;19922;-75
2023/08/12 08:02:17;;;;;;;18.92;12.95;;;;;;;20.75;86.53;101553.72;7402726;19;19968;-74
2023/08/12 08:04:48;;;;;;;23.92;13.07;;;;;;;20.75;86.75;101553.72;7402546;19;20256;-75
2023/08/12 08:07:17;;;;;;;24.98;12.50;;;;;;;20.78;86.61;101541.47;7402117;19;19925;-75
2023/08/12 08:09:46;;;;;;;18.95;11.73;;;;;;;20.82;86.78;101540.78;7402085;19;19922;-75
2023/08/12 08:12:17;;;;;;;20.88;12.82;;;;;;;20.84;87.15;101543.28;7402004;19;19915;-75
2023/08/12 08:14:46;;;;;;;18.77;11.95;;;;;;;20.88;86.93;101546.44;7401701;19;19918;-75
2023/08/12 08:17:14;;;;;;;18.95;12.32;;;;;;;20.91;86.69;101538.59;7401734;19;19915;-75
2023/08/12 08:19:43;;;;;;;21.85;13.40;;;;;;;20.93;86.59;101543.81;7400889;19;20372;-75
2023/08/12 08:22:11;;;;;;;19.75;11.07;;;;;;;20.95;87.29;101536.22;7401150;19;19922;-75
2023/08/12 08:24:40;;;;;;;23.33;12.80;;;;;;;21.00;86.83;101539.13;7401329;19;19918;-75
2023/08/12 08:27:09;;;;;;;20.05;12.43;;;;;;;21.04;86.73;101535.69;7401002;19;19918;-75
2023/08/12 08:29:40;;;;;;;22.23;13.52;;;;;;;21.09;86.98;101545.97;7402676;19;20284;-75
2023/08/12 08:32:09;;;;;;;19.98;13.30;;;;;;;21.09;86.91;101543.22;7400913;19;19918;-75
2023/08/12 08:34:37;;;;;;;19.52;13.15;;;;;;;21.08;86.68;101549.75;7401021;19;19923;-75
2023/08/12 08:37:06;;;;;;;17.95;11.63;;;;;;;21.03;86.50;101544.13;7398976;19;19977;-76
2023/08/12 08:39:35;;;;;;;18.17;12.05;;;;;;;21.01;86.67;101546.28;7400199;19;19922;-76
2023/08/12 08:42:05;;;;;;;18.77;12.38;;;;;;;20.99;86.58;101554.72;7400575;19;20257;-75
2023/08/12 08:44:35;;;;;;;21.38;12.93;;;;;;;20.97;86.38;101547.81;7400684;19;20254;-75
2023/08/12 08:47:09;;;;;;;19.92;11.32;;;;;;;20.98;86.83;101543.97;7400349;19;20312;-75
2023/08/12 08:49:38;;;;;;;19.77;13.07;;;;;;;20.99;86.47;101553.88;7400495;19;19922;-76
2023/08/12 08:52:07;;;;;;;20.80;12.65;;;;;;;20.97;86.31;101550.53;7400313;19;19918;-76
2023/08/12 08:54:36;;;;;;;17.20;12.27;;;;;;;20.94;86.35;101546.34;7400150;19;20265;-76
2023/08/12 08:57:06;;;;;;;18.73;12.27;;;;;;;20.92;86.79;101562.19;7400175;19;19930;-75
2023/08/12 08:59:34;;;;;;;21.67;11.60;;;;;;;20.87;87.38;101545.59;7398846;19;19923;-75
2023/08/12 09:02:07;;;;;;;20.60;12.73;;;;;;;20.86;87.42;101546.66;7400386;19;19914;-75
2023/08/12 09:04:36;;;;;;;22.63;14.57;;;;;;;20.86;87.56;101543.06;7399741;19;19946;-75
2023/08/12 09:07:05;;;;;;;23.38;13.20;;;;;;;20.86;88.07;101543.91;7399896;19;19918;-75
2023/08/12 09:09:32;;;;;;;23.13;12.52;;;;;;;20.89;88.45;101534.38;7400005;19;20344;-76
2023/08/12 09:12:01;;;;;;;24.88;13.45;;;;;;;20.91;88.48;101535.00;7399609;19;19925;-76
2023/08/12 09:14:29;;;;;;;21.13;13.23;;;;;;;20.90;87.89;101530.59;7399765;19;19966;-76
2023/08/12 09:16:58;;;;;;;19.20;12.82;;;;;;;20.91;88.15;101526.78;7399346;19;20216;-76
2023/08/12 09:19:29;;;;;;;19.13;13.13;;;;;;;20.92;88.40;101523.00;7399452;19;19970;-77
2023/08/12 09:21:58;;;;;;;19.25;12.40;;;;;;;20.90;88.88;101517.72;7398166;19;20036;-76
2023/08/12 09:24:27;;;;;;;19.73;13.75;;;;;;;20.91;88.84;101518.56;7400240;19;19942;-76
2023/08/12 09:26:56;;;;;;;19.67;12.32;;;;;;;20.93;88.42;101522.75;7400034;19;19914;-76
2023/08/12 09:29:26;;;;;;;19.13;13.60;;;;;;;20.93;88.60;101520.00;7400875;19;19922;-76
2023/08/12 09:31:54;;;;;;;20.55;12.35;;;;;;;20.88;89.18;101519.88;7399438;19;19957;-76
2023/08/12 09:34:23;;;;;;;18.83;13.05;;;;;;;20.88;88.97;101513.56;7402805;19;20272;-76
2023/08/12 09:36:54;;;;;;;18.52;13.23;;;;;;;20.89;88.98;101504.25;7400022;19;19946;-76
2023/08/12 09:39:23;;;;;;;18.90;12.23;;;;;;;20.88;88.97;101491.66;7400569;19;19922;-75
2023/08/12 09:41:52;;;;;;;19.27;12.52;;;;;;;20.86;89.25;101478.19;7399138;19;20695;-76
2023/08/12 09:44:22;;;;;;;20.17;13.60;;;;;;;20.86;89.08;101477.34;7401367;19;19918;-76
2023/08/12 09:46:51;;;;;;;23.88;12.25;;;;;;;20.82;89.00;101483.28;7401629;19;19947;-76
2023/08/12 09:49:21;;;;;;;20.67;12.90;;;;;;;20.77;89.19;101490.50;7401492;19;19919;-75
2023/08/12 09:51:49;;;;;;;20.48;13.50;;;;;;;20.71;89.54;101496.91;7401239;19;19929;-76
2023/08/12 09:54:21;;;;;;;16.80;11.75;;;;;;;20.64;89.57;101499.72;7400967;19;19919;-75
2023/08/12 09:56:51;;;;;;;20.60;13.52;;;;;;;20.59;90.11;101499.56;7398360;19;19935;-76
2023/08/12 09:59:22;;;;;;;20.20;12.82;;;;;;;20.56;90.21;101504.66;7398143;19;20274;-76
2023/08/12 10:01:52;;;;;;;;;;;;;;;20.32;91.99;101504.47;7399107;19;19926;-75
2023/08/12 10:04:24;;;;;;;17.52;11.52;;;;;;;20.45;90.35;101517.16;7398453;19;19914;-75
2023/08/12 10:06:53;;;;;;;15.60;11.30;;;;;;;20.44;90.56;101510.06;7398593;19;19957;-75
2023/08/12 10:09:26;;;;;;;11.73;8.57;;;;;;;20.39;89.97;101509.88;7398717;19;19918;-75
2023/08/12 10:11:55;;;;;;;13.25;8.75;;;;;;;20.33;90.31;101499.81;7399193;19;19931;-76
2023/08/12 10:14:25;;;;;;;14.80;7.65;;;;;;;20.28;90.25;101503.22;7404551;19;19911;-75
2023/08/12 10:16:55;;;;;;;7.95;5.78;;;;;;;20.23;90.19;101507.72;7404095;19;19922;-76
2023/08/12 10:19:25;;;;;;;9.15;6.38;;;;;;;20.16;90.38;101510.50;7403918;19;19911;-76
2023/08/12 10:21:58;;;;;;;8.57;5.72;;;;;;;20.14;90.45;101509.06;7401879;19;19932;-76
2023/08/12 10:24:30;;;;;;;8.40;5.57;;;;;;;20.11;90.87;101507.59;7405004;19;19932;-76
2023/08/12 10:26:59;;;;;;;9.52;5.95;;;;;;;20.09;90.88;101498.78;7404114;19;19923;-75
2023/08/12 10:29:27;;;;;;;9.80;6.53;;;;;;;20.08;91.05;101496.25;7405121;19;19922;-76
2023/08/12 10:31:56;;;;;;;8.48;5.30;;;;;;;20.09;91.43;101487.00;7403885;19;19918;-75
2023/08/12 10:34:26;;;;;;;8.43;5.18;;;;;;;20.10;90.84;101492.25;7403864;19;19946;-76
2023/08/12 10:36:57;;;;;;;6.47;5.15;;;;;;;20.12;90.56;101494.75;7401847;19;19922;-76
2023/08/12 10:39:30;;;;;;;7.07;4.47;;;;;;;20.09;90.49;101497.94;7403017;19;19918;-76
2023/08/12 10:41:59;;;;;;;6.07;4.50;;;;;;;20.10;90.71;101499.63;7401931;19;20268;-76
2023/08/12 10:44:40;;;;;;;7.18;4.22;;;;;;;20.08;91.02;101496.25;7403360;19;20374;-76
2023/08/12 10:47:11;;;;;;;8.63;4.72;;;;;;;20.06;91.05;101490.19;7403978;19;19989;-76
2023/08/12 10:49:41;;;;;;;7.30;5.00;;;;;;;20.06;90.73;101491.03;7403433;19;20328;-76
2023/08/12 10:52:28;;;;;;;6.22;4.80;;;;;;;20.02;91.67;101494.44;7403391;19;19936;-76
2023/08/12 10:55:19;;;;;;;7.68;4.85;;;;;;;20.01;91.38;101485.38;7403276;19;19915;-76
2023/08/12 10:57:47;;;;;;;6.72;4.20;;;;;;;20.08;90.66;101479.84;7403336;19;19957;-76
2023/08/12 11:00:17;;;;;;;5.03;4.10;;;;;;;20.09;90.84;101478.78;7403394;19;19951;-76
2023/08/12 11:02:51;;;;;;;6.43;4.00;;;;;;;20.10;91.66;101473.09;7403684;19;19918;-76
2023/08/12 11:05:22;;;;;;;4.40;2.65;;;;;;;20.10;90.83;101475.84;7402972;19;19914;-76
2023/08/12 11:07:52;;;;;;;5.80;3.60;;;;;;;20.12;90.68;101478.31;7402866;19;19925;-76
2023/08/12 11:10:26;;;;;;;3.58;3.00;;;;;;;20.12;90.31;101472.84;7402947;19;19915;-76
2023/08/12 11:12:57;;;;;;;4.22;3.10;;;;;;;20.14;90.51;101470.75;7402852;19;19918;-76
2023/08/12 11:15:34;;;;;;;6.90;3.00;;;;;;;20.16;90.44;101460.41;7402705;19;20324;-76
2023/08/12 11:18:06;;;;;;;4.18;2.70;;;;;;;20.25;90.37;101450.84;7402808;19;19926;-75
2023/08/12 11:20:35;;;;;;;5.00;2.97;;;;;;;20.35;89.90;101441.09;7402383;19;19935;-76
2023/08/12 11:23:04;;;;;;;4.90;3.08;;;;;;;20.48;90.12;101447.47;7401982;19;20017;-75
2023/08/12 11:25:37;;;;;;;4.50;3.30;;;;;;;20.54;89.29;101466.53;7402629;19;20270;-76
2023/08/12 11:28:07;;;;;;;4.32;2.75;;;;;;;20.56;88.93;101464.44;7402059;19;19966;-75
2023/08/12 11:30:36;;;;;;;5.63;2.95;;;;;;;20.60;89.21;101457.44;7406342;19;19911;-75